createdAt,value
2022-12-03T00:00:26.305Z,74.14
2022-12-03T00:02:53.104Z,74.10
2022-12-03T00:05:21.243Z,74.26
2022-12-03T00:07:47.935Z,74.47
2022-12-03T00:10:14.700Z,74.16
2022-12-03T00:12:41.293Z,74.32
2022-12-03T00:15:09.876Z,74.29
2022-12-03T00:17:36.578Z,73.92
2022-12-03T00:20:04.254Z,74.32
2022-12-03T00:22:33.237Z,74.25
2022-12-03T00:25:00.197Z,74.15
2022-12-03T00:27:26.974Z,74.01
2022-12-03T00:29:53.607Z,74.16
2022-12-03T00:32:20.406Z,74.47
2022-12-03T00:34:47.026Z,74.16
2022-12-03T00:37:14.361Z,74.21
2022-12-03T00:39:42.433Z,73.73
2022-12-03T00:42:09.063Z,73.82
2022-12-03T00:44:35.714Z,74.15
2022-12-03T00:47:02.421Z,74.08
2022-12-03T00:49:29.118Z,74.08
2022-12-03T00:51:55.898Z,74.09
2022-12-03T00:54:26.825Z,73.77
2022-12-03T00:56:58.625Z,73.95
2022-12-03T00:59:25.507Z,74.07
2022-12-03T01:01:52.268Z,74.05
2022-12-03T01:04:19.052Z,74.40
2022-12-03T01:06:45.751Z,73.93
2022-12-03T01:09:12.326Z,74.13
2022-12-03T01:11:39.048Z,74.35
2022-12-03T01:14:09.609Z,74.18
2022-12-03T01:16:36.988Z,74.23
2022-12-03T01:19:04.747Z,74.27
2022-12-03T01:21:31.787Z,74.14
2022-12-03T01:23:58.631Z,74.04
2022-12-03T01:26:25.658Z,74.09
2022-12-03T01:28:52.973Z,74.38
2022-12-03T01:31:40.164Z,74.59
2022-12-03T01:34:06.801Z,73.86
2022-12-03T01:36:37.081Z,74.14
2022-12-03T01:39:04.694Z,74.42
2022-12-03T01:41:32.257Z,74.11
2022-12-03T01:43:59.819Z,73.94
2022-12-03T01:46:35.013Z,74.22
2022-12-03T01:49:01.838Z,74.44
2022-12-03T01:51:29.757Z,74.33
2022-12-03T01:53:57.548Z,74.86
2022-12-03T01:56:24.430Z,74.68
2022-12-03T01:58:51.091Z,74.40
2022-12-03T02:01:19.088Z,74.31
2022-12-03T02:03:47.402Z,74.35
2022-12-03T02:06:16.625Z,74.83
2022-12-03T02:08:43.680Z,74.58
2022-12-03T02:11:19.193Z,74.42
2022-12-03T02:13:47.460Z,74.49
2022-12-03T02:16:14.177Z,74.83
2022-12-03T02:18:43.145Z,74.79
2022-12-03T02:21:17.647Z,74.61
2022-12-03T02:23:53.309Z,74.63
2022-12-03T02:26:21.709Z,74.61
2022-12-03T02:28:48.398Z,74.87
2022-12-03T02:31:15.226Z,74.68
2022-12-03T02:33:42.188Z,74.98
2022-12-03T02:36:09.613Z,74.82
2022-12-03T02:38:36.427Z,74.86
2022-12-03T02:41:07.258Z,74.53
2022-12-03T02:43:35.405Z,74.53
2022-12-03T02:46:03.665Z,74.92
2022-12-03T02:48:34.600Z,74.68
2022-12-03T02:51:04.645Z,74.70
2022-12-03T02:53:35.729Z,74.81
2022-12-03T02:56:04.521Z,74.98
2022-12-03T02:58:32.885Z,75.04
2022-12-03T03:01:03.930Z,74.99
2022-12-03T03:03:32.408Z,74.61
2022-12-03T03:06:02.585Z,74.66
2022-12-03T03:08:30.873Z,74.85
2022-12-03T03:11:00.179Z,74.87
2022-12-03T03:13:29.221Z,74.81
2022-12-03T03:15:56.042Z,74.69
2022-12-03T03:18:24.289Z,74.67
2022-12-03T03:20:51.127Z,74.86
2022-12-03T03:23:20.260Z,75.00
2022-12-03T03:25:49.540Z,74.65
2022-12-03T03:28:16.806Z,74.76
2022-12-03T03:30:44.261Z,74.47
2022-12-03T03:33:13.036Z,74.72
2022-12-03T03:35:41.992Z,74.90
2022-12-03T03:38:09.944Z,74.54
2022-12-03T03:40:37.476Z,74.49
2022-12-03T03:43:05.256Z,74.53
2022-12-03T03:45:31.941Z,74.13
2022-12-03T03:47:59.780Z,74.07
2022-12-03T03:50:28.419Z,74.05
2022-12-03T03:52:57.633Z,74.17
2022-12-03T03:55:24.781Z,73.86
2022-12-03T03:57:51.683Z,74.07
2022-12-03T04:00:19.036Z,74.02
2022-12-03T04:02:46.029Z,74.02
2022-12-03T04:05:17.353Z,73.77
2022-12-03T04:07:44.094Z,74.03
2022-12-03T04:10:32.356Z,73.90
2022-12-03T04:12:59.448Z,73.49
2022-12-03T04:15:26.381Z,73.59
2022-12-03T04:18:25.137Z,73.91
2022-12-03T04:20:51.796Z,73.59
2022-12-03T04:23:18.387Z,73.95
2022-12-03T04:26:05.061Z,73.83
2022-12-03T04:28:49.593Z,73.84
2022-12-03T04:31:36.851Z,73.99
2022-12-03T04:34:22.177Z,74.00
2022-12-03T04:36:48.815Z,73.36
2022-12-03T04:39:15.711Z,73.71
2022-12-03T04:41:43.663Z,74.21
2022-12-03T04:44:28.807Z,73.49
2022-12-03T04:46:55.464Z,73.87
2022-12-03T04:49:22.481Z,73.70
2022-12-03T04:51:49.362Z,73.76
2022-12-03T04:54:16.000Z,73.76
2022-12-03T04:56:44.254Z,74.15
2022-12-03T04:59:15.775Z,73.84
2022-12-03T05:01:43.659Z,73.70
2022-12-03T05:04:10.920Z,73.73
2022-12-03T05:06:37.693Z,74.28
2022-12-03T05:09:04.869Z,74.19
2022-12-03T05:11:31.824Z,74.23
2022-12-03T05:13:59.829Z,73.97
2022-12-03T05:16:26.501Z,73.96
2022-12-03T05:18:53.128Z,74.10
2022-12-03T05:21:19.705Z,73.97
2022-12-03T05:23:46.463Z,74.42
2022-12-03T05:26:13.114Z,74.24
2022-12-03T05:28:39.981Z,73.97
2022-12-03T05:31:08.342Z,73.89
2022-12-03T05:33:37.308Z,74.23
2022-12-03T05:36:08.088Z,74.35
2022-12-03T05:38:34.795Z,74.19
2022-12-03T05:41:01.601Z,74.08
2022-12-03T05:43:28.207Z,74.41
2022-12-03T05:45:54.957Z,74.23
2022-12-03T05:48:22.921Z,74.00
2022-12-03T05:50:49.520Z,74.02
2022-12-03T05:53:17.778Z,74.04
2022-12-03T05:55:44.424Z,74.61
2022-12-03T05:58:11.968Z,74.06
2022-12-03T06:00:42.858Z,74.62
2022-12-03T06:03:10.572Z,74.15
2022-12-03T06:05:38.832Z,74.71
2022-12-03T06:08:05.529Z,74.35
2022-12-03T06:10:32.608Z,74.53
2022-12-03T06:12:59.287Z,74.58
2022-12-03T06:15:25.967Z,74.42
2022-12-03T06:17:52.609Z,74.71
2022-12-03T06:20:20.700Z,74.50
2022-12-03T06:22:48.833Z,74.31
2022-12-03T06:25:16.275Z,74.23
2022-12-03T06:27:45.782Z,74.32
2022-12-03T06:30:14.837Z,74.83
2022-12-03T06:32:41.624Z,74.85
2022-12-03T06:35:09.055Z,74.80
2022-12-03T06:37:35.660Z,74.35
2022-12-03T06:40:04.326Z,74.49
2022-12-03T06:42:30.969Z,74.31
2022-12-03T06:44:57.725Z,74.93
2022-12-03T06:47:24.375Z,74.78
2022-12-03T06:49:51.005Z,74.74
2022-12-03T06:52:17.675Z,74.70
2022-12-03T06:54:44.335Z,74.97
2022-12-03T06:57:12.317Z,75.07
2022-12-03T06:59:39.064Z,75.00
2022-12-03T07:02:05.748Z,74.87
2022-12-03T07:04:32.425Z,74.48
2022-12-03T07:06:59.071Z,74.69
2022-12-03T07:09:25.825Z,74.88
2022-12-03T07:11:52.660Z,74.96
2022-12-03T07:14:20.870Z,74.68
2022-12-03T07:16:47.782Z,74.77
2022-12-03T07:19:14.730Z,74.73
2022-12-03T07:21:41.643Z,75.17
2022-12-03T07:24:08.736Z,74.82
2022-12-03T07:26:35.390Z,74.63
2022-12-03T07:29:02.044Z,75.09
2022-12-03T07:31:30.454Z,75.02
2022-12-03T07:33:57.107Z,75.26
2022-12-03T07:36:23.812Z,74.93
2022-12-03T07:38:50.406Z,75.11
2022-12-03T07:41:17.028Z,75.05
2022-12-03T07:43:45.182Z,75.17
2022-12-03T07:46:12.066Z,75.08
2022-12-03T07:48:40.151Z,75.05
2022-12-03T07:51:07.078Z,74.94
2022-12-03T07:53:35.964Z,75.03
2022-12-03T07:56:03.480Z,75.02
2022-12-03T07:58:30.440Z,75.04
2022-12-03T08:00:57.286Z,75.09
2022-12-03T08:03:24.012Z,74.82
2022-12-03T08:05:52.040Z,74.63
2022-12-03T08:08:18.736Z,75.20
2022-12-03T08:10:45.417Z,75.08
2022-12-03T08:13:14.857Z,74.81
2022-12-03T08:15:41.947Z,74.95
2022-12-03T08:18:15.040Z,74.72
2022-12-03T08:20:43.255Z,75.35
2022-12-03T08:23:16.588Z,74.64
2022-12-03T08:25:45.013Z,75.32
2022-12-03T08:28:14.619Z,75.25
2022-12-03T08:30:42.436Z,74.70
2022-12-03T08:33:24.801Z,75.04
2022-12-03T08:35:51.610Z,75.00
2022-12-03T08:38:22.661Z,75.02
2022-12-03T08:40:51.314Z,75.33
2022-12-03T08:43:20.962Z,75.11
2022-12-03T08:45:49.764Z,74.86
2022-12-03T08:48:34.453Z,74.83
2022-12-03T08:51:06.340Z,74.82
2022-12-03T08:53:36.624Z,74.74
2022-12-03T08:56:05.809Z,74.53
2022-12-03T08:58:38.128Z,74.82
2022-12-03T09:01:28.870Z,74.87
2022-12-03T09:03:59.718Z,74.71
2022-12-03T09:06:26.420Z,74.79
2022-12-03T09:08:54.428Z,74.88
2022-12-03T09:11:21.063Z,74.89
2022-12-03T09:13:47.684Z,74.58
2022-12-03T09:16:14.321Z,74.57
2022-12-03T09:18:41.296Z,74.65
2022-12-03T09:21:07.867Z,75.10
2022-12-03T09:23:34.545Z,75.08
2022-12-03T09:26:02.629Z,74.97
2022-12-03T09:28:29.381Z,74.60
2022-12-03T09:30:55.947Z,74.82
2022-12-03T09:33:22.608Z,74.96
2022-12-03T09:35:49.243Z,75.09
2022-12-03T09:38:15.882Z,74.70
2022-12-03T09:40:42.679Z,74.55
2022-12-03T09:43:12.161Z,75.12
2022-12-03T09:45:39.014Z,74.95
2022-12-03T09:48:05.824Z,74.65
2022-12-03T09:50:32.700Z,74.34
2022-12-03T09:53:03.685Z,74.88
2022-12-03T09:55:31.120Z,75.06
2022-12-03T09:57:58.431Z,74.75
2022-12-03T10:00:28.384Z,74.89
2022-12-03T10:02:57.975Z,75.12
2022-12-03T10:05:24.762Z,74.80
2022-12-03T10:07:52.559Z,74.57
2022-12-03T10:10:21.238Z,75.19
2022-12-03T10:12:48.804Z,74.72
2022-12-03T10:15:18.913Z,74.92
2022-12-03T10:17:49.474Z,74.79
2022-12-03T10:20:18.202Z,74.49
2022-12-03T10:22:45.160Z,74.86
2022-12-03T10:25:13.965Z,74.99
2022-12-03T10:27:41.593Z,75.20
2022-12-03T10:30:17.553Z,74.80
2022-12-03T10:32:47.563Z,75.39
2022-12-03T10:35:16.550Z,75.63
2022-12-03T10:38:00.612Z,74.83
2022-12-03T10:40:28.831Z,74.96
2022-12-03T10:43:14.223Z,75.52
2022-12-03T10:45:41.612Z,75.02
2022-12-03T10:48:14.512Z,75.22
2022-12-03T10:50:48.758Z,75.08
2022-12-03T10:53:15.875Z,75.19
2022-12-03T10:55:43.946Z,75.07
2022-12-03T10:58:20.187Z,75.54
2022-12-03T11:00:47.036Z,75.67
2022-12-03T11:03:19.535Z,75.21
2022-12-03T11:05:46.512Z,75.34
2022-12-03T11:08:18.656Z,74.94
2022-12-03T11:10:45.807Z,75.11
2022-12-03T11:13:44.709Z,75.33
2022-12-03T11:16:12.331Z,74.99
2022-12-03T11:19:00.878Z,75.00
2022-12-03T11:21:27.977Z,75.37
2022-12-03T11:24:20.679Z,75.61
2022-12-03T11:27:07.373Z,75.16
2022-12-03T11:30:01.554Z,75.46
2022-12-03T11:33:07.996Z,75.33
2022-12-03T11:36:09.710Z,75.35
2022-12-03T11:38:53.622Z,75.09
2022-12-03T11:41:26.406Z,75.28
2022-12-03T11:44:05.826Z,75.18
2022-12-03T11:46:41.979Z,75.50
2022-12-03T11:49:29.815Z,75.53
2022-12-03T11:51:58.829Z,75.54
2022-12-03T11:54:25.931Z,75.33
2022-12-03T11:56:54.369Z,75.33
2022-12-03T11:59:21.029Z,75.82
2022-12-03T12:01:47.864Z,75.44
2022-12-03T12:04:32.203Z,75.38
2022-12-03T12:07:00.362Z,75.60
2022-12-03T12:09:50.615Z,75.75
2022-12-03T12:12:28.086Z,75.65
2022-12-03T12:14:54.948Z,75.94
2022-12-03T12:17:35.727Z,75.79
2022-12-03T12:20:27.835Z,75.64
2022-12-03T12:22:56.193Z,75.72
2022-12-03T12:25:40.710Z,75.60
2022-12-03T12:28:08.419Z,75.95
2022-12-03T12:30:35.435Z,75.71
2022-12-03T12:33:12.037Z,75.86
2022-12-03T12:35:38.790Z,76.24
2022-12-03T12:38:15.118Z,76.35
2022-12-03T12:40:45.228Z,75.75
2022-12-03T12:43:24.161Z,76.00
2022-12-03T12:45:53.737Z,75.70
2022-12-03T12:48:26.025Z,75.85
2022-12-03T12:50:58.823Z,76.30
2022-12-03T12:53:28.308Z,75.67
2022-12-03T12:55:57.242Z,76.24
2022-12-03T12:58:24.550Z,76.19
2022-12-03T13:00:53.081Z,75.97
2022-12-03T13:03:22.852Z,76.38
2022-12-03T13:05:51.613Z,76.07
2022-12-03T13:08:25.533Z,76.10
2022-12-03T13:10:55.111Z,76.27
2022-12-03T13:13:30.378Z,75.96
2022-12-03T13:16:03.988Z,76.48
2022-12-03T13:18:34.644Z,76.04
2022-12-03T13:21:13.314Z,76.73
2022-12-03T13:23:40.337Z,75.88
2022-12-03T13:26:32.865Z,76.60
2022-12-03T13:29:11.006Z,76.63
2022-12-03T13:31:43.416Z,76.43
2022-12-03T13:34:17.203Z,76.53
2022-12-03T13:36:45.868Z,76.78
2022-12-03T13:39:19.863Z,76.34
2022-12-03T13:42:07.508Z,76.30
2022-12-03T13:44:37.287Z,76.36
2022-12-03T13:47:13.319Z,76.45
2022-12-03T13:49:40.006Z,76.61
2022-12-03T13:52:12.761Z,76.38
2022-12-03T13:54:57.114Z,76.30
2022-12-03T13:57:25.129Z,75.86
2022-12-03T13:59:52.345Z,75.90
2022-12-03T14:02:19.218Z,76.01
2022-12-03T14:04:45.940Z,76.46
2022-12-03T14:07:12.549Z,76.55
2022-12-03T14:09:39.195Z,75.97
2022-12-03T14:12:24.554Z,76.17
2022-12-03T14:14:52.577Z,76.36
2022-12-03T14:17:19.339Z,75.92
2022-12-03T14:19:46.030Z,76.36
2022-12-03T14:22:12.792Z,76.15
2022-12-03T14:24:42.345Z,76.06
2022-12-03T14:27:08.919Z,76.25
2022-12-03T14:29:35.559Z,76.71
2022-12-03T14:32:03.614Z,76.31
2022-12-03T14:34:30.440Z,76.25
2022-12-03T14:36:57.138Z,76.33
2022-12-03T14:39:23.783Z,76.05
2022-12-03T14:42:08.997Z,76.19
2022-12-03T14:44:35.813Z,75.87
2022-12-03T14:47:03.995Z,75.99
2022-12-03T14:49:30.648Z,76.27
2022-12-03T14:51:57.298Z,75.95
2022-12-03T14:54:24.090Z,76.14
2022-12-03T14:56:50.703Z,75.95
2022-12-03T14:59:18.526Z,76.58
2022-12-03T15:01:46.653Z,76.10
2022-12-03T15:04:14.733Z,75.88
2022-12-03T15:06:41.403Z,76.22
2022-12-03T15:09:08.082Z,75.90
2022-12-03T15:11:35.278Z,75.90
2022-12-03T15:14:02.035Z,76.16
2022-12-03T15:16:28.807Z,76.32
2022-12-03T15:18:55.463Z,76.43
2022-12-03T15:21:23.448Z,76.23
2022-12-03T15:23:50.079Z,76.59
2022-12-03T15:26:16.740Z,76.52
2022-12-03T15:28:48.063Z,76.08
2022-12-03T15:31:15.107Z,75.94
2022-12-03T15:33:41.720Z,75.96
2022-12-03T15:36:09.145Z,76.34
2022-12-03T15:38:37.094Z,75.96
2022-12-03T15:41:20.971Z,76.03
2022-12-03T15:43:47.723Z,75.92
2022-12-03T15:46:15.591Z,76.22
2022-12-03T15:48:42.707Z,75.92
2022-12-03T15:51:09.308Z,76.11
2022-12-03T15:53:37.286Z,75.92
2022-12-03T15:56:04.410Z,76.43
2022-12-03T15:58:31.102Z,76.05
2022-12-03T16:00:57.976Z,76.28
2022-12-03T16:03:25.664Z,75.93
2022-12-03T16:05:52.382Z,76.09
2022-12-03T16:08:19.216Z,76.18
2022-12-03T16:10:47.349Z,76.28
2022-12-03T16:13:14.104Z,76.21
2022-12-03T16:15:40.882Z,76.08
2022-12-03T16:18:07.543Z,76.00
2022-12-03T16:20:34.408Z,75.72
2022-12-03T16:23:01.041Z,75.88
2022-12-03T16:25:27.673Z,76.11
2022-12-03T16:27:56.543Z,75.81
2022-12-03T16:30:24.910Z,75.69
2022-12-03T16:32:51.574Z,76.08
2022-12-03T16:35:18.228Z,75.93
2022-12-03T16:37:44.932Z,75.55
2022-12-03T16:40:12.225Z,75.90
2022-12-03T16:42:38.897Z,76.00
2022-12-03T16:45:08.927Z,75.87
2022-12-03T16:47:35.539Z,75.87
2022-12-03T16:50:03.211Z,76.18
2022-12-03T16:52:29.813Z,75.55
2022-12-03T16:54:56.404Z,76.22
2022-12-03T16:57:23.000Z,76.15
2022-12-03T16:59:49.603Z,75.83
2022-12-03T17:02:17.708Z,75.47
2022-12-03T17:04:44.380Z,75.87
2022-12-03T17:07:11.008Z,76.03
2022-12-03T17:09:38.327Z,75.57
2022-12-03T17:12:05.134Z,75.61
2022-12-03T17:14:33.587Z,75.58
2022-12-03T17:17:00.424Z,75.46
2022-12-03T17:19:28.419Z,76.00
2022-12-03T17:21:55.062Z,75.55
2022-12-03T17:24:21.730Z,75.56
2022-12-03T17:26:48.407Z,75.61
2022-12-03T17:29:15.088Z,75.65
2022-12-03T17:31:42.750Z,75.73
2022-12-03T17:34:09.794Z,75.95
2022-12-03T17:36:37.745Z,75.94
2022-12-03T17:39:04.353Z,75.86
2022-12-03T17:41:30.971Z,75.96
2022-12-03T17:43:57.569Z,75.44
2022-12-03T17:46:24.244Z,75.54
2022-12-03T17:48:50.840Z,75.72
2022-12-03T17:51:19.290Z,76.15
2022-12-03T17:53:47.289Z,75.52
2022-12-03T17:56:14.296Z,75.97
2022-12-03T17:58:41.200Z,76.38
2022-12-03T18:01:10.364Z,75.74
2022-12-03T18:03:37.599Z,75.64
2022-12-03T18:06:04.682Z,76.21
2022-12-03T18:08:31.333Z,75.82
2022-12-03T18:10:59.526Z,76.16
2022-12-03T18:13:28.201Z,75.64
2022-12-03T18:15:55.083Z,76.17
2022-12-03T18:18:21.789Z,76.00
2022-12-03T18:20:48.431Z,75.64
2022-12-03T18:23:15.208Z,76.04
2022-12-03T18:25:42.380Z,75.45
2022-12-03T18:28:10.473Z,75.71
2022-12-03T18:30:37.130Z,75.49
2022-12-03T18:33:03.707Z,75.59
2022-12-03T18:35:30.380Z,75.45
2022-12-03T18:37:57.140Z,75.94
2022-12-03T18:40:25.168Z,76.19
2022-12-03T18:42:51.763Z,75.90
2022-12-03T18:45:20.002Z,75.68
2022-12-03T18:47:47.137Z,75.90
2022-12-03T18:50:14.326Z,75.61
2022-12-03T18:52:42.000Z,75.77
2022-12-03T18:55:16.463Z,76.10
2022-12-03T18:57:43.030Z,75.90
2022-12-03T19:00:13.642Z,75.95
2022-12-03T19:05:28.724Z,76.11
2022-12-03T19:07:56.483Z,75.49
2022-12-03T19:10:24.597Z,75.73
2022-12-03T19:12:51.354Z,75.40
2022-12-03T19:15:18.253Z,75.63
2022-12-03T19:17:49.547Z,75.31
2022-12-03T19:20:16.452Z,75.48
2022-12-03T19:22:43.080Z,75.99
2022-12-03T19:25:09.982Z,75.57
2022-12-03T19:27:36.645Z,75.89
2022-12-03T19:30:03.682Z,75.34
2022-12-03T19:32:30.337Z,75.48
2022-12-03T19:34:58.292Z,75.34
2022-12-03T19:37:24.973Z,75.38
2022-12-03T19:39:53.218Z,75.42
2022-12-03T19:42:19.985Z,75.81
2022-12-03T19:44:46.661Z,75.41
2022-12-03T19:47:13.249Z,75.45
2022-12-03T19:49:39.909Z,75.61
2022-12-03T19:52:07.934Z,75.88
2022-12-03T19:54:34.773Z,75.34
2022-12-03T19:57:01.415Z,75.71
2022-12-03T19:59:28.011Z,75.89
2022-12-03T20:01:54.701Z,75.53
2022-12-03T20:04:21.440Z,75.40
2022-12-03T20:06:48.344Z,75.84
2022-12-03T20:09:17.799Z,75.31
2022-12-03T20:11:45.951Z,75.41
2022-12-03T20:14:14.962Z,75.17
2022-12-03T20:16:41.945Z,75.64
2022-12-03T20:19:12.092Z,75.79
2022-12-03T20:21:39.814Z,75.64
2022-12-03T20:24:07.867Z,75.12
2022-12-03T20:26:35.921Z,75.32
2022-12-03T20:29:02.583Z,75.34
2022-12-03T20:31:30.794Z,75.71
2022-12-03T20:34:00.230Z,75.39
2022-12-03T20:36:28.498Z,75.27
2022-12-03T20:38:56.319Z,75.17
2022-12-03T20:41:23.188Z,74.98
2022-12-03T20:43:51.562Z,75.20
2022-12-03T20:46:20.819Z,75.30
2022-12-03T20:48:48.759Z,75.55
2022-12-03T20:51:17.394Z,75.21
2022-12-03T20:53:44.451Z,75.20
2022-12-03T20:56:15.837Z,75.10
2022-12-03T20:58:42.772Z,75.57
2022-12-03T21:01:16.424Z,75.55
2022-12-03T21:03:43.506Z,75.03
2022-12-03T21:06:10.357Z,75.23
2022-12-03T21:08:41.661Z,75.03
2022-12-03T21:11:09.855Z,74.97
2022-12-03T21:13:36.506Z,74.99
2022-12-03T21:16:05.975Z,75.09
2022-12-03T21:18:34.272Z,75.10
2022-12-03T21:21:02.429Z,75.05
2022-12-03T21:23:29.790Z,75.14
2022-12-03T21:26:02.202Z,75.04
2022-12-03T21:28:28.968Z,75.02
2022-12-03T21:31:00.229Z,75.40
2022-12-03T21:33:27.008Z,75.12
2022-12-03T21:35:55.233Z,75.11
2022-12-03T21:38:22.313Z,75.46
2022-12-03T21:40:49.026Z,75.53
2022-12-03T21:43:15.709Z,75.53
2022-12-03T21:45:42.716Z,75.31
2022-12-03T21:48:09.643Z,75.78
2022-12-03T21:50:36.296Z,75.58
2022-12-03T21:53:04.494Z,75.29
2022-12-03T21:55:31.276Z,75.15
2022-12-03T21:57:58.520Z,75.07
2022-12-03T22:00:25.407Z,75.61
2022-12-03T22:02:52.513Z,75.13
2022-12-03T22:05:19.270Z,75.34
2022-12-03T22:07:45.984Z,75.36
2022-12-03T22:10:14.227Z,75.18
2022-12-03T22:12:41.940Z,75.06
2022-12-03T22:15:13.531Z,75.11
2022-12-03T22:17:44.923Z,75.14
2022-12-03T22:20:12.400Z,75.75
2022-12-03T22:22:38.984Z,75.42
2022-12-03T22:25:05.866Z,75.40
2022-12-03T22:27:33.963Z,75.00
2022-12-03T22:30:00.749Z,75.50
2022-12-03T22:32:27.399Z,75.57
2022-12-03T22:34:54.103Z,75.71
2022-12-03T22:37:20.696Z,75.07
2022-12-03T22:39:47.313Z,75.72
2022-12-03T22:42:14.125Z,75.18
2022-12-03T22:44:42.089Z,75.56
2022-12-03T22:47:08.675Z,75.29
2022-12-03T22:49:35.279Z,75.15
2022-12-03T22:52:01.912Z,75.10
2022-12-03T22:54:28.587Z,75.19
2022-12-03T22:56:55.154Z,75.60
2022-12-03T22:59:21.806Z,75.25
2022-12-03T23:01:49.779Z,75.18
2022-12-03T23:04:16.505Z,75.52
2022-12-03T23:06:44.900Z,75.20
2022-12-03T23:09:11.624Z,75.17
2022-12-03T23:11:38.427Z,75.56
2022-12-03T23:14:05.113Z,75.20
2022-12-03T23:16:33.763Z,75.67
2022-12-03T23:19:03.853Z,75.10
2022-12-03T23:21:32.552Z,75.66
2022-12-03T23:24:00.166Z,75.94
2022-12-03T23:26:27.573Z,75.89
2022-12-03T23:28:54.478Z,75.84
2022-12-03T23:31:23.824Z,75.54
2022-12-03T23:33:52.058Z,75.16
2022-12-03T23:36:20.670Z,75.43
2022-12-03T23:38:47.392Z,75.67
2022-12-03T23:41:16.198Z,75.87
2022-12-03T23:43:43.706Z,75.93
2022-12-03T23:46:11.954Z,75.43
2022-12-03T23:48:38.619Z,75.51
2022-12-03T23:51:06.384Z,75.71
2022-12-03T23:53:35.055Z,75.73
2022-12-03T23:56:05.075Z,75.50
2022-12-03T23:58:31.696Z,75.84
